Time;durP1;ratioP1;P1;durP2;ratioP2;P2;SDS_P1;SDS_P2;PMS_P1;PMS_P2;Temp;Humidity;BMP_temperature;BMP_pressure;BME280_temperature;BME280_humidity;BME280_pressure;Samples;Min_cycle;Max_cycle;Signal;HPM_P1;HPM_P2
2022/08/14 00:00:48;;;;;;;12.55;9.48;;;26.40;52.10;;;;;;5069010;28;20513;-86
2022/08/14 00:03:23;;;;;;;10.10;9.10;;;26.40;52.20;;;;;;5068707;28;20059;-86
2022/08/14 00:05:48;;;;;;;9.60;8.52;;;26.30;52.30;;;;;;5068088;28;20040;-85
2022/08/14 00:08:14;;;;;;;9.80;8.80;;;26.30;52.30;;;;;;5051928;28;20044;-85
2022/08/14 00:10:40;;;;;;;11.23;9.13;;;26.30;52.40;;;;;;5068530;28;20059;-85
2022/08/14 00:13:07;;;;;;;11.88;9.32;;;26.30;52.40;;;;;;5068545;28;20048;-85
2022/08/14 00:15:37;;;;;;;10.90;8.90;;;26.30;52.50;;;;;;5068636;28;20134;-86
2022/08/14 00:18:03;;;;;;;9.15;7.82;;;26.20;52.50;;;;;;5051505;28;20073;-86
2022/08/14 00:20:32;;;;;;;8.95;8.05;;;26.20;52.60;;;;;;5068275;28;20044;-86
2022/08/14 00:22:59;;;;;;;9.93;9.05;;;26.10;52.80;;;;;;5051735;28;20055;-86
2022/08/14 00:25:27;;;;;;;9.55;8.55;;;26.10;52.90;;;;;;5068428;28;20041;-85
2022/08/14 00:27:53;;;;;;;11.35;9.52;;;26.10;53.00;;;;;;5068428;28;20057;-86
2022/08/14 00:30:19;;;;;;;11.57;9.90;;;26.10;53.00;;;;;;5051316;28;20090;-85
2022/08/14 00:32:45;;;;;;;10.40;9.15;;;26.10;52.90;;;;;;5068125;28;20044;-86
2022/08/14 00:35:11;;;;;;;11.13;10.02;;;26.10;52.80;;;;;;5068282;28;20646;-86
2022/08/14 00:37:40;;;;;;;11.93;10.93;;;26.00;52.80;;;;;;5051279;28;20064;-85
2022/08/14 00:40:08;;;;;;;11.65;9.02;;;25.90;53.00;;;;;;5068315;28;20501;-86
2022/08/14 00:42:34;;;;;;;9.52;8.52;;;25.80;53.30;;;;;;5067767;28;20135;-85
2022/08/14 00:45:00;;;;;;;10.02;9.13;;;25.80;53.50;;;;;;5067796;28;20135;-86
2022/08/14 00:47:25;;;;;;;10.70;9.30;;;25.80;53.60;;;;;;5068215;28;20068;-85
2022/08/14 00:49:52;;;;;;;10.00;9.02;;;25.80;53.70;;;;;;5068129;28;20108;-85
2022/08/14 00:52:19;;;;;;;10.73;9.73;;;25.80;53.70;;;;;;5068120;28;20501;-85
2022/08/14 00:54:51;;;;;;;11.23;9.48;;;25.80;53.70;;;;;;5051210;28;20131;-85
2022/08/14 00:57:18;;;;;;;14.70;9.63;;;25.80;54.00;;;;;;5067934;28;20037;-85
2022/08/14 00:59:44;;;;;;;9.45;8.55;;;25.80;54.00;;;;;;5067886;28;20110;-85
2022/08/14 01:02:13;;;;;;;10.25;9.35;;;25.80;54.20;;;;;;5070670;28;20040;-86
2022/08/14 01:04:42;;;;;;;12.50;10.02;;;25.70;54.30;;;;;;5072091;28;20045;-85
2022/08/14 01:07:08;;;;;;;10.52;9.60;;;25.70;54.30;;;;;;5072145;28;20114;-86
2022/08/14 01:09:36;;;;;;;11.60;10.55;;;25.70;54.00;;;;;;5071524;28;20044;-86
2022/08/14 01:12:02;;;;;;;12.60;11.30;;;25.70;54.00;;;;;;5072385;28;20052;-85
2022/08/14 01:14:28;;;;;;;11.70;10.60;;;25.60;53.90;;;;;;5072018;28;20052;-85
2022/08/14 01:16:54;;;;;;;13.65;11.35;;;25.70;54.00;;;;;;5071639;28;20040;-86
2022/08/14 01:22:06;;;;;;;12.48;11.38;;;25.50;53.90;;;;;;5071351;28;20139;-85
2022/08/14 01:24:32;;;;;;;12.73;11.48;;;25.50;54.00;;;;;;5054753;28;20044;-85
2022/08/14 01:26:58;;;;;;;11.85;10.40;;;25.40;54.10;;;;;;5071560;28;20525;-87
2022/08/14 01:29:26;;;;;;;12.45;11.20;;;25.40;54.40;;;;;;5071434;28;20623;-85
2022/08/14 01:31:51;;;;;;;12.73;11.52;;;25.40;54.50;;;;;;5071282;28;20048;-85
2022/08/14 01:34:24;;;;;;;13.32;11.93;;;25.40;54.50;;;;;;5054525;28;20044;-85
2022/08/14 01:36:52;;;;;;;13.70;12.43;;;25.40;54.50;;;;;;5074405;28;20113;-85
2022/08/14 01:39:19;;;;;;;12.50;11.30;;;25.40;54.40;;;;;;5074623;28;20132;-86
2022/08/14 01:41:51;;;;;;;12.30;11.15;;;25.30;54.40;;;;;;5075013;28;20412;-85
2022/08/14 01:44:17;;;;;;;12.02;10.98;;;25.20;54.50;;;;;;5057784;28;20131;-85
2022/08/14 01:46:44;;;;;;;12.93;11.70;;;25.30;54.60;;;;;;5074760;28;20584;-85
2022/08/14 01:49:14;;;;;;;12.13;11.10;;;25.20;54.80;;;;;;5057602;28;20044;-85
2022/08/14 01:51:42;;;;;;;11.52;10.50;;;25.10;54.90;;;;;;5074397;28;20048;-86
2022/08/14 01:54:19;;;;;;;12.88;10.52;;;25.10;54.80;;;;;;5074439;28;20113;-85
2022/08/14 01:56:45;;;;;;;12.35;11.15;;;25.00;55.00;;;;;;5073978;28;20497;-85
2022/08/14 01:59:20;;;;;;;13.13;11.82;;;25.10;55.00;;;;;;5074106;28;20059;-86
2022/08/14 02:01:50;;;;;;;12.75;11.55;;;25.10;55.30;;;;;;5057357;28;20066;-85
2022/08/14 02:04:15;;;;;;;12.55;11.38;;;25.10;55.10;;;;;;5057806;28;20470;-85
2022/08/14 02:06:41;;;;;;;13.27;12.07;;;25.10;55.30;;;;;;5074015;28;20139;-85
2022/08/14 02:09:07;;;;;;;13.48;12.27;;;25.10;55.30;;;;;;5074120;28;20068;-85
2022/08/14 02:11:34;;;;;;;14.15;11.32;;;25.10;55.20;;;;;;5073328;28;20509;-85
2022/08/14 02:14:03;;;;;;;11.38;10.27;;;25.10;55.20;;;;;;5074066;28;20398;-85
2022/08/14 02:16:32;;;;;;;13.07;11.82;;;25.10;55.10;;;;;;5057352;28;20055;-85
2022/08/14 02:19:00;;;;;;;12.48;11.27;;;25.10;55.20;;;;;;5074298;28;20446;-85
2022/08/14 02:21:28;;;;;;;12.63;11.00;;;25.00;54.80;;;;;;5074140;28;20045;-85
2022/08/14 02:23:55;;;;;;;12.63;11.43;;;25.00;54.80;;;;;;5073951;28;20050;-85
2022/08/14 02:26:23;;;;;;;11.90;10.80;;;24.90;55.80;;;;;;5073369;28;20044;-85
2022/08/14 02:28:52;;;;;;;12.15;10.95;;;24.80;55.30;;;;;;5073727;28;20079;-86
2022/08/14 02:31:18;;;;;;;13.13;11.93;;;24.80;55.60;;;;;;5074177;28;20032;-85
2022/08/14 02:33:45;;;;;;;12.55;11.43;;;24.70;55.80;;;;;;5073475;28;20131;-85
2022/08/14 02:36:12;;;;;;;12.88;11.65;;;24.70;55.90;;;;;;5056995;28;20054;-85
2022/08/14 02:38:39;;;;;;;12.70;11.55;;;24.70;55.90;;;;;;5056734;28;20055;-85
2022/08/14 02:41:08;;;;;;;13.68;12.27;;;24.70;56.00;;;;;;5073677;28;20048;-85
2022/08/14 02:43:33;;;;;;;12.98;11.68;;;24.70;56.10;;;;;;5073868;28;20389;-85
2022/08/14 02:46:00;;;;;;;14.73;13.27;;;24.80;56.00;;;;;;5072755;28;20043;-84
2022/08/14 02:48:30;;;;;;;13.48;12.18;;;24.70;56.10;;;;;;5073356;28;20055;-84
2022/08/14 02:50:57;;;;;;;14.82;13.43;;;24.70;56.20;;;;;;5073246;28;20078;-85
2022/08/14 02:53:23;;;;;;;14.95;13.27;;;24.70;56.30;;;;;;5073341;28;20485;-85
2022/08/14 02:55:49;;;;;;;15.68;13.30;;;24.70;56.30;;;;;;5073002;28;20051;-85
2022/08/14 02:58:15;;;;;;;14.63;13.23;;;24.70;56.40;;;;;;5072636;28;20056;-86
2022/08/14 03:00:42;;;;;;;14.10;12.80;;;24.70;56.50;;;;;;5056823;28;20086;-85
2022/08/14 03:03:08;;;;;;;14.48;12.98;;;24.70;56.20;;;;;;5073269;28;20036;-86
2022/08/14 03:05:34;;;;;;;13.25;12.13;;;24.50;56.00;;;;;;5073043;28;20102;-85
2022/08/14 03:08:12;;;;;;;14.73;13.30;;;24.50;56.30;;;;;;5073187;28;20139;-85
2022/08/14 03:10:38;;;;;;;14.07;12.55;;;24.40;56.70;;;;;;5072810;28;20058;-85
2022/08/14 03:13:04;;;;;;;14.32;12.35;;;24.50;56.60;;;;;;5073341;28;20409;-85
2022/08/14 03:15:32;;;;;;;13.90;12.40;;;24.40;56.80;;;;;;5056484;28;20075;-85
2022/08/14 03:17:58;;;;;;;12.93;11.73;;;24.40;56.70;;;;;;5072752;28;20040;-85
2022/08/14 03:20:28;;;;;;;13.13;12.02;;;24.40;56.80;;;;;;5073865;28;20040;-85
2022/08/14 03:22:58;;;;;;;12.85;11.55;;;24.30;56.80;;;;;;5072952;28;20048;-85
2022/08/14 03:25:24;;;;;;;12.35;11.15;;;24.30;56.60;;;;;;5072801;28;20048;-85
2022/08/14 03:27:49;;;;;;;13.85;12.45;;;24.20;56.70;;;;;;5073246;28;20047;-85
2022/08/14 03:30:15;;;;;;;15.85;13.48;;;24.10;56.90;;;;;;5073167;28;20455;-85
2022/08/14 03:32:42;;;;;;;13.50;12.30;;;24.10;57.00;;;;;;5073297;28;20072;-85
2022/08/14 03:35:10;;;;;;;14.13;12.73;;;24.00;57.30;;;;;;5072235;28;20062;-85
2022/08/14 03:37:35;;;;;;;15.02;13.48;;;24.00;57.70;;;;;;5072058;28;20056;-85
2022/08/14 03:40:01;;;;;;;12.38;11.23;;;23.90;57.90;;;;;;5072238;28;20044;-85
2022/08/14 03:42:27;;;;;;;12.88;11.70;;;23.90;58.00;;;;;;5055745;28;20042;-84
2022/08/14 03:44:52;;;;;;;14.80;13.40;;;23.90;58.10;;;;;;5072446;28;20048;-85
2022/08/14 03:47:18;;;;;;;16.02;13.90;;;23.80;58.10;;;;;;5072513;28;20052;-85
2022/08/14 03:49:45;;;;;;;15.48;13.88;;;23.80;58.30;;;;;;5071904;28;20048;-85
2022/08/14 03:52:12;;;;;;;13.57;12.30;;;23.80;58.40;;;;;;5072329;28;20059;-85
2022/08/14 03:54:38;;;;;;;15.38;13.48;;;23.80;58.60;;;;;;5072221;28;20056;-85
2022/08/14 03:57:04;;;;;;;16.08;14.48;;;23.70;58.60;;;;;;5055260;28;20036;-85
2022/08/14 03:59:33;;;;;;;14.65;13.07;;;23.70;58.80;;;;;;5072517;28;20040;-85
2022/08/14 04:01:59;;;;;;;14.18;12.85;;;23.70;58.90;;;;;;5072127;28;20046;-85
2022/08/14 04:04:25;;;;;;;14.30;13.00;;;23.70;58.80;;;;;;5072370;28;20134;-85
2022/08/14 04:06:51;;;;;;;13.60;12.30;;;23.80;58.80;;;;;;5072078;28;20561;-85
2022/08/14 04:09:17;;;;;;;15.65;14.05;;;23.80;58.60;;;;;;5072290;28;20050;-84
2022/08/14 04:11:44;;;;;;;14.95;13.48;;;23.80;58.50;;;;;;5071589;28;20056;-85
2022/08/14 04:14:09;;;;;;;15.15;13.68;;;23.80;58.40;;;;;;5071923;28;20135;-85
2022/08/14 04:16:35;;;;;;;14.93;13.45;;;23.70;58.50;;;;;;5072120;28;20663;-85
2022/08/14 04:19:03;;;;;;;14.70;13.20;;;23.60;58.80;;;;;;5054778;28;20039;-85
2022/08/14 04:21:29;;;;;;;15.80;14.23;;;23.60;58.80;;;;;;5071928;28;20101;-85
2022/08/14 04:23:57;;;;;;;16.10;14.60;;;23.60;58.90;;;;;;5072104;28;20173;-85
2022/08/14 04:26:24;;;;;;;14.48;12.90;;;23.50;59.00;;;;;;5055312;28;20051;-85
2022/08/14 04:28:50;;;;;;;16.20;14.70;;;23.50;59.10;;;;;;5071828;28;20040;-85
2022/08/14 04:31:17;;;;;;;15.85;14.20;;;23.50;59.20;;;;;;5071396;28;20427;-85
2022/08/14 04:33:43;;;;;;;15.57;13.98;;;23.60;59.40;;;;;;5071896;28;20060;-85
2022/08/14 04:36:09;;;;;;;15.68;14.18;;;23.50;59.20;;;;;;5071517;28;20481;-84
2022/08/14 04:44:04;;;;;;;13.80;12.43;;;23.50;59.50;;;;;;5071545;28;20044;-85
2022/08/14 04:46:33;;;;;;;14.38;13.05;;;23.60;59.70;;;;;;5071429;28;20055;-84
2022/08/14 04:48:59;;;;;;;15.38;13.98;;;23.60;59.80;;;;;;5071372;28;20070;-85
2022/08/14 04:51:26;;;;;;;15.95;13.93;;;23.60;59.70;;;;;;5071670;28;20044;-85
2022/08/14 04:53:53;;;;;;;15.13;13.63;;;23.60;59.80;;;;;;5071491;28;20055;-85
2022/08/14 04:56:23;;;;;;;15.60;14.00;;;23.60;59.90;;;;;;5071438;28;20079;-85
2022/08/14 04:58:54;;;;;;;15.05;13.45;;;23.70;60.00;;;;;;5071031;28;20098;-85
2022/08/14 05:01:20;;;;;;;16.08;14.43;;;23.70;60.10;;;;;;5071806;28;20051;-85
2022/08/14 05:03:46;;;;;;;16.42;13.80;;;23.70;59.90;;;;;;5071654;28;20123;-85
2022/08/14 05:06:12;;;;;;;15.90;14.32;;;23.70;59.60;;;;;;5071055;28;20461;-85
2022/08/14 05:08:39;;;;;;;15.20;13.80;;;23.50;59.30;;;;;;5071613;28;20044;-85
2022/08/14 05:11:06;;;;;;;15.85;14.30;;;23.50;59.40;;;;;;5054700;28;20118;-85
2022/08/14 05:13:34;;;;;;;15.35;13.85;;;23.40;59.60;;;;;;5071393;28;20055;-84
2022/08/14 05:16:00;;;;;;;52.33;16.27;;;23.40;59.90;;;;;;5070940;28;20070;-85
2022/08/14 05:18:31;;;;;;;23.85;15.18;;;23.30;60.00;;;;;;5071660;28;20700;-85
2022/08/14 05:20:59;;;;;;;30.08;15.40;;;23.30;60.40;;;;;;5071299;28;20051;-85
2022/08/14 05:23:27;;;;;;;20.98;15.07;;;23.30;60.40;;;;;;5070915;28;20097;-86
2022/08/14 05:25:59;;;;;;;15.88;14.45;;;23.30;60.50;;;;;;5054674;28;20044;-85
2022/08/14 05:28:26;;;;;;;14.88;13.02;;;23.30;60.70;;;;;;5071333;28;20044;-85
2022/08/14 05:30:56;;;;;;;16.23;14.52;;;23.30;60.60;;;;;;5071261;28;20048;-85
2022/08/14 05:33:27;;;;;;;15.23;13.63;;;23.30;60.80;;;;;;5071074;28;20097;-85
2022/08/14 05:35:59;;;;;;;14.15;12.75;;;23.40;60.80;;;;;;5071048;28;20052;-85
2022/08/14 05:38:28;;;;;;;15.63;14.13;;;23.50;60.70;;;;;;5071185;28;20063;-85
2022/08/14 05:40:55;;;;;;;15.00;13.63;;;23.70;60.80;;;;;;5071035;28;20063;-85
2022/08/14 05:43:21;;;;;;;15.68;14.23;;;23.70;60.80;;;;;;5071118;28;20052;-85
2022/08/14 05:45:47;;;;;;;15.10;13.60;;;23.80;61.00;;;;;;5071013;28;20541;-85
2022/08/14 05:48:15;;;;;;;16.42;14.65;;;23.90;61.00;;;;;;5073790;28;20103;-85
2022/08/14 05:50:41;;;;;;;17.10;14.55;;;24.00;61.20;;;;;;5074318;28;20173;-85
2022/08/14 05:53:07;;;;;;;14.82;13.27;;;24.10;61.20;;;;;;5074496;28;20131;-85
2022/08/14 05:55:33;;;;;;;19.45;14.25;;;24.20;61.00;;;;;;5057972;28;20074;-84
2022/08/14 05:58:04;;;;;;;16.48;14.32;;;24.30;61.00;;;;;;5057590;28;20485;-85
2022/08/14 06:00:32;;;;;;;16.10;14.00;;;24.40;61.10;;;;;;5074234;28;20040;-85
2022/08/14 06:02:59;;;;;;;14.05;12.75;;;24.50;61.00;;;;;;5057299;28;20043;-85
2022/08/14 06:05:25;;;;;;;15.40;13.70;;;24.60;60.80;;;;;;5074264;28;20053;-85
2022/08/14 06:07:51;;;;;;;15.63;13.95;;;24.70;60.50;;;;;;5057432;28;20047;-85
2022/08/14 06:10:17;;;;;;;15.30;13.82;;;24.80;60.70;;;;;;5073995;28;20040;-84
2022/08/14 06:12:42;;;;;;;18.00;13.60;;;24.90;60.40;;;;;;5073978;28;20455;-85
2022/08/14 06:15:09;;;;;;;16.52;13.85;;;25.00;60.30;;;;;;5074468;28;20071;-86
2022/08/14 06:17:45;;;;;;;15.88;12.80;;;25.10;60.00;;;;;;5074402;28;20496;-85
2022/08/14 06:20:12;;;;;;;12.65;11.18;;;25.20;59.90;;;;;;5074283;28;20493;-85
2022/08/14 06:22:39;;;;;;;13.27;11.07;;;25.40;59.40;;;;;;5074241;28;20075;-85
2022/08/14 06:25:05;;;;;;;17.67;12.55;;;25.60;59.10;;;;;;5073703;28;20044;-85
2022/08/14 06:27:38;;;;;;;17.92;12.73;;;25.60;59.00;;;;;;5073561;28;20044;-85
2022/08/14 06:30:08;;;;;;;;;;;25.70;59.00;;;;;;5074440;28;20052;-85
2022/08/14 06:32:34;;;;;;;12.85;11.52;;;26.00;58.40;;;;;;5073484;28;19920;-85
2022/08/14 06:35:01;;;;;;;12.77;11.48;;;26.10;58.30;;;;;;5073343;28;20056;-85
2022/08/14 06:37:27;;;;;;;12.60;10.77;;;26.10;58.20;;;;;;5073491;28;20055;-84
2022/08/14 06:39:53;;;;;;;15.85;13.27;;;26.20;58.20;;;;;;5073653;28;20130;-85
2022/08/14 06:42:19;;;;;;;16.77;11.90;;;26.30;58.20;;;;;;5073471;28;20569;-85
2022/08/14 06:44:45;;;;;;;15.93;12.38;;;26.40;58.00;;;;;;5073268;28;20052;-85
2022/08/14 06:47:10;;;;;;;15.55;11.55;;;26.50;58.00;;;;;;5056592;28;20102;-85
2022/08/14 06:49:36;;;;;;;12.85;11.55;;;26.60;57.80;;;;;;5073138;28;20048;-85
2022/08/14 06:52:03;;;;;;;19.38;12.40;;;26.80;57.50;;;;;;5073273;28;20044;-85
2022/08/14 06:54:30;;;;;;;12.43;11.23;;;26.80;57.40;;;;;;5073113;28;20508;-85
2022/08/14 06:56:56;;;;;;;11.57;10.57;;;26.90;57.10;;;;;;5072794;28;20122;-85
2022/08/14 06:59:22;;;;;;;13.75;10.95;;;27.00;56.70;;;;;;5072647;28;20127;-85
2022/08/14 07:07:15;;;;;;;11.93;10.82;;;27.40;55.90;;;;;;5072794;28;20052;-85
2022/08/14 07:09:41;;;;;;;12.60;10.98;;;27.50;55.60;;;;;;5073019;28;20459;-84
2022/08/14 07:12:08;;;;;;;12.15;10.63;;;27.60;55.80;;;;;;5072819;28;20036;-85
2022/08/14 07:14:33;;;;;;;13.32;10.18;;;27.70;55.70;;;;;;5072476;28;20119;-85
2022/08/14 07:16:59;;;;;;;11.15;10.05;;;27.80;55.40;;;;;;5055608;28;20126;-86
2022/08/14 07:19:25;;;;;;;12.15;10.95;;;27.90;55.10;;;;;;5072377;28;20043;-85
2022/08/14 07:21:51;;;;;;;11.07;9.30;;;28.00;55.10;;;;;;5055699;28;20044;-85
2022/08/14 07:24:17;;;;;;;11.20;9.85;;;28.10;55.00;;;;;;5072433;28;20044;-85
2022/08/14 07:26:42;;;;;;;11.13;10.13;;;28.30;54.70;;;;;;5072109;28;20466;-85
2022/08/14 07:29:08;;;;;;;11.18;10.07;;;28.30;54.70;;;;;;5072144;28;20066;-85
2022/08/14 07:31:34;;;;;;;10.07;9.07;;;28.40;54.60;;;;;;5072501;28;20053;-85
2022/08/14 07:33:59;;;;;;;11.18;10.13;;;28.50;54.10;;;;;;5055418;28;20046;-85
2022/08/14 07:36:26;;;;;;;11.10;9.90;;;28.60;54.20;;;;;;5055711;28;20048;-85
2022/08/14 07:38:52;;;;;;;9.65;8.70;;;28.60;54.00;;;;;;5072179;28;20614;-85
2022/08/14 07:41:18;;;;;;;10.50;9.43;;;28.70;53.60;;;;;;5071643;28;20044;-85
2022/08/14 07:43:43;;;;;;;10.55;9.50;;;28.90;53.20;;;;;;5071842;28;20044;-85
2022/08/14 07:46:10;;;;;;;10.45;9.38;;;29.00;53.30;;;;;;5071772;28;20051;-85
2022/08/14 07:48:39;;;;;;;10.85;9.65;;;29.10;53.40;;;;;;5072239;28;20048;-85
2022/08/14 07:51:06;;;;;;;10.90;9.25;;;29.10;52.90;;;;;;5072081;28;20044;-85
2022/08/14 07:53:32;;;;;;;10.48;9.30;;;29.30;52.90;;;;;;5071660;28;20066;-85
2022/08/14 07:55:58;;;;;;;10.05;9.15;;;29.30;52.60;;;;;;5055282;28;20067;-84
2022/08/14 07:58:24;;;;;;;12.98;9.20;;;29.40;52.50;;;;;;5071442;28;20098;-84
2022/08/14 08:00:54;;;;;;;13.13;9.15;;;29.60;52.40;;;;;;5071691;28;20048;-83
2022/08/14 08:03:21;;;;;;;10.20;9.18;;;29.60;52.00;;;;;;5071576;28;20401;-85
2022/08/14 08:05:47;;;;;;;10.32;9.27;;;29.70;51.70;;;;;;5071521;28;20048;-85
2022/08/14 08:08:15;;;;;;;9.80;8.77;;;29.80;51.30;;;;;;5071739;28;20484;-85
2022/08/14 08:10:43;;;;;;;9.73;8.90;;;29.90;51.10;;;;;;5070589;28;20047;-85
2022/08/14 08:13:12;;;;;;;9.98;9.00;;;30.00;50.70;;;;;;5054077;28;20067;-85
2022/08/14 08:15:40;;;;;;;8.98;8.07;;;30.00;50.20;;;;;;5071724;28;20132;-86
2022/08/14 08:18:07;;;;;;;8.80;8.00;;;30.10;50.20;;;;;;5071058;28;20105;-85
2022/08/14 08:20:35;;;;;;;8.90;8.10;;;30.10;50.20;;;;;;5071650;28;20505;-85
2022/08/14 08:23:03;;;;;;;8.80;8.00;;;30.20;50.20;;;;;;5070789;28;20129;-85
2022/08/14 08:25:30;;;;;;;9.30;8.43;;;30.30;50.10;;;;;;5071046;28;20488;-85
2022/08/14 08:28:01;;;;;;;8.90;7.95;;;30.40;49.40;;;;;;5053791;28;20044;-85
2022/08/14 08:30:29;;;;;;;8.82;8.02;;;30.40;48.80;;;;;;5070922;28;20489;-85
2022/08/14 08:32:56;;;;;;;13.73;12.18;;;30.50;49.30;;;;;;5070892;28;20051;-85
2022/08/14 08:35:25;;;;;;;8.80;7.90;;;30.70;49.10;;;;;;5070715;28;20044;-85
2022/08/14 08:37:59;;;;;;;8.68;7.78;;;30.70;48.40;;;;;;5054017;28;20405;-85
2022/08/14 08:40:34;;;;;;;8.73;7.72;;;30.70;48.30;;;;;;5070658;28;20058;-85
2022/08/14 08:43:01;;;;;;;8.50;7.70;;;30.70;47.70;;;;;;5070675;28;20056;-85
2022/08/14 08:45:28;;;;;;;11.68;7.97;;;30.90;48.00;;;;;;5070822;28;20515;-86
2022/08/14 08:47:54;;;;;;;8.02;7.20;;;30.90;48.40;;;;;;5054310;28;20044;-85
2022/08/14 08:50:29;;;;;;;7.82;7.03;;;31.00;48.60;;;;;;5054307;28;20101;-85
2022/08/14 08:53:00;;;;;;;8.82;8.02;;;31.10;48.10;;;;;;5071402;28;20056;-86
2022/08/14 08:55:39;;;;;;;10.85;8.25;;;31.30;47.60;;;;;;5054028;28;20117;-85
2022/08/14 08:58:07;;;;;;;9.95;8.05;;;31.30;48.10;;;;;;5070570;28;20062;-85
2022/08/14 09:00:35;;;;;;;9.52;7.68;;;31.50;47.40;;;;;;5054248;28;20503;-87
2022/08/14 09:03:14;;;;;;;8.43;7.38;;;31.70;47.60;;;;;;5071273;28;20481;-86
2022/08/14 09:05:52;;;;;;;7.72;7.03;;;31.70;47.60;;;;;;5071454;28;20063;-86
2022/08/14 09:08:19;;;;;;;7.82;7.13;;;31.80;47.00;;;;;;5071509;28;20609;-86
2022/08/14 09:10:46;;;;;;;8.50;7.70;;;32.00;46.00;;;;;;5070945;28;20454;-85
2022/08/14 09:13:14;;;;;;;9.82;8.65;;;32.00;45.60;;;;;;5071543;28;20465;-86
2022/08/14 09:15:45;;;;;;;7.65;6.93;;;32.00;45.90;;;;;;5071366;28;20044;-85
2022/08/14 09:18:12;;;;;;;7.10;6.43;;;32.00;45.30;;;;;;5071267;28;20465;-86
2022/08/14 09:20:40;;;;;;;7.60;6.90;;;32.10;45.70;;;;;;5071264;28;20072;-86
2022/08/14 09:23:10;;;;;;;6.85;6.15;;;32.20;45.60;;;;;;5073419;28;20047;-85
2022/08/14 09:25:36;;;;;;;7.20;6.50;;;32.30;45.50;;;;;;5075040;28;20044;-85
2022/08/14 09:28:03;;;;;;;7.22;6.60;;;32.40;45.20;;;;;;5058323;28;20134;-87
2022/08/14 09:30:32;;;;;;;7.43;6.82;;;32.50;44.90;;;;;;5058607;28;20044;-86
2022/08/14 09:33:01;;;;;;;7.72;6.93;;;32.50;44.00;;;;;;5075042;28;20036;-86
2022/08/14 09:35:48;;;;;;;6.68;6.00;;;32.50;43.70;;;;;;5074863;28;20044;-86
2022/08/14 09:38:32;;;;;;;6.95;6.25;;;32.50;43.80;;;;;;5074646;28;20060;-86
2022/08/14 09:41:36;;;;;;;6.97;6.38;;;32.60;43.30;;;;;;5074968;28;20416;-86
2022/08/14 09:44:06;;;;;;;;;;;32.50;44.40;;;;;;5058549;28;20044;-85
2022/08/14 09:46:33;;;;;;;7.28;6.53;;;32.90;44.50;;;;;;5074828;28;19930;-86
2022/08/14 09:49:01;;;;;;;6.88;6.28;;;32.90;43.90;;;;;;5074613;28;20698;-85
2022/08/14 09:51:28;;;;;;;10.50;7.07;;;33.00;43.60;;;;;;5074729;28;20119;-86
2022/08/14 09:54:08;;;;;;;7.32;6.72;;;33.00;42.90;;;;;;5074697;28;20583;-86
2022/08/14 09:56:45;;;;;;;8.18;7.38;;;33.00;43.20;;;;;;5057801;28;20481;-85
2022/08/14 09:59:13;;;;;;;8.80;7.28;;;33.10;42.90;;;;;;5074348;28;20483;-86
2022/08/14 10:01:39;;;;;;;8.38;7.38;;;33.30;43.10;;;;;;5057450;28;20044;-85
2022/08/14 10:04:17;;;;;;;8.43;7.65;;;33.40;42.60;;;;;;5057046;28;20040;-86
2022/08/14 10:06:44;;;;;;;7.47;6.78;;;33.40;42.20;;;;;;5074116;28;20386;-85
2022/08/14 10:09:10;;;;;;;7.25;6.53;;;33.60;41.80;;;;;;5073434;28;20565;-86
2022/08/14 10:11:38;;;;;;;7.75;6.95;;;33.60;42.00;;;;;;5074177;28;20988;-86
2022/08/14 10:14:23;;;;;;;8.02;7.22;;;33.70;41.90;;;;;;5073622;28;20044;-87
2022/08/14 10:16:53;;;;;;;7.95;7.25;;;33.70;42.00;;;;;;5074129;28;20785;-86
2022/08/14 10:19:20;;;;;;;7.22;6.63;;;33.80;40.80;;;;;;5069896;28;20552;-85
2022/08/14 10:22:01;;;;;;;8.32;7.50;;;33.80;41.20;;;;;;5077593;28;20156;-85
2022/08/14 10:24:45;;;;;;;7.70;7.00;;;33.80;41.60;;;;;;5057189;28;20040;-85
2022/08/14 10:27:17;;;;;;;8.27;7.57;;;34.00;41.50;;;;;;5073036;28;20489;-86
2022/08/14 10:29:48;;;;;;;8.65;7.80;;;34.00;41.80;;;;;;5073299;28;20082;-85
2022/08/14 10:32:14;;;;;;;8.60;7.80;;;34.10;40.90;;;;;;5056482;28;20047;-85
2022/08/14 10:34:40;;;;;;;8.00;7.13;;;34.20;40.50;;;;;;5073070;28;20048;-85
2022/08/14 10:37:12;;;;;;;8.27;7.47;;;34.20;40.70;;;;;;5073546;28;20078;-84
2022/08/14 10:39:42;;;;;;;7.95;7.25;;;34.00;40.50;;;;;;5073024;28;20052;-85
2022/08/14 10:42:10;;;;;;;34.33;8.95;;;34.00;41.10;;;;;;5072462;28;20078;-83
2022/08/14 10:44:38;;;;;;;8.70;7.80;;;34.30;41.50;;;;;;5056762;28;20088;-84
2022/08/14 10:47:11;;;;;;;10.45;7.28;;;34.40;40.50;;;;;;5072340;28;20047;-84
2022/08/14 10:49:42;;;;;;;;;;;34.60;40.00;;;;;;5056522;28;20036;-85
2022/08/14 10:52:18;;;;;;;8.80;7.30;;;34.80;40.40;;;;;;5072249;28;19924;-87
2022/08/14 10:54:45;;;;;;;8.18;7.50;;;34.80;40.00;;;;;;5072589;28;20075;-86
2022/08/14 10:57:14;;;;;;;8.27;7.57;;;34.80;39.60;;;;;;5090555;28;20066;-87
2022/08/14 10:59:58;;;;;;;8.05;7.35;;;34.70;39.30;;;;;;5056283;28;20036;-86
2022/08/14 11:02:36;;;;;;;7.85;7.13;;;34.70;39.90;;;;;;5072892;28;20056;-85
2022/08/14 11:05:13;;;;;;;9.30;7.47;;;34.80;39.40;;;;;;5072164;28;20532;-86
2022/08/14 11:07:53;;;;;;;7.68;6.97;;;35.00;39.60;;;;;;5073034;28;20055;-87
2022/08/14 11:10:19;;;;;;;8.10;7.40;;;35.00;39.00;;;;;;5072875;28;20054;-86
2022/08/14 11:12:51;;;;;;;7.85;7.22;;;35.20;38.50;;;;;;5072765;28;20493;-86
2022/08/14 11:15:19;;;;;;;7.88;7.22;;;35.30;38.50;;;;;;5071967;28;20048;-86
2022/08/14 11:17:46;;;;;;;8.60;7.50;;;35.50;38.60;;;;;;5072694;28;20504;-88
2022/08/14 11:20:15;;;;;;;7.22;6.55;;;35.70;38.60;;;;;;5055670;28;20093;-87
2022/08/14 11:22:41;;;;;;;9.60;7.10;;;35.70;38.30;;;;;;5072514;28;20055;-86
2022/08/14 11:25:10;;;;;;;7.63;6.93;;;35.70;38.50;;;;;;5055403;28;20044;-86
2022/08/14 11:27:38;;;;;;;7.55;6.78;;;35.80;37.80;;;;;;5072515;28;20044;-87
2022/08/14 11:30:08;;;;;;;7.70;6.45;;;36.00;37.70;;;;;;5055973;28;20054;-87
2022/08/14 11:32:35;;;;;;;7.85;7.10;;;36.10;37.30;;;;;;5072312;28;20044;-87
2022/08/14 11:35:03;;;;;;;8.48;7.20;;;36.10;36.40;;;;;;5072027;28;20058;-87
2022/08/14 11:37:32;;;;;;;7.03;6.32;;;36.10;36.50;;;;;;5071699;28;20495;-87
2022/08/14 11:39:59;;;;;;;7.85;6.30;;;36.10;36.70;;;;;;5072301;28;20596;-87
2022/08/14 11:42:27;;;;;;;9.90;6.18;;;36.10;36.90;;;;;;5055791;28;20579;-86
2022/08/14 11:44:56;;;;;;;12.80;6.70;;;36.20;37.40;;;;;;5070893;28;20036;-86
2022/08/14 11:47:23;;;;;;;7.38;6.68;;;36.30;37.00;;;;;;5071803;28;20515;-87
2022/08/14 11:49:49;;;;;;;5.95;5.45;;;36.60;35.80;;;;;;5055246;28;20042;-87
2022/08/14 11:52:19;;;;;;;8.43;6.50;;;36.60;35.40;;;;;;5071697;28;20131;-88
2022/08/14 11:54:55;;;;;;;6.95;6.30;;;36.70;35.80;;;;;;5054883;28;20044;-87
2022/08/14 11:57:21;;;;;;;7.18;6.50;;;36.60;35.40;;;;;;5071749;28;20114;-87
2022/08/14 11:59:47;;;;;;;8.75;7.13;;;36.80;35.80;;;;;;5071205;28;20126;-86
2022/08/14 12:02:15;;;;;;;6.60;5.97;;;36.90;35.40;;;;;;5071613;28;20075;-88
2022/08/14 12:04:49;;;;;;;7.10;6.10;;;37.00;34.90;;;;;;5071541;28;20101;-88
2022/08/14 12:07:15;;;;;;;7.10;6.40;;;37.00;34.50;;;;;;5055005;28;20043;-87
2022/08/14 12:09:40;;;;;;;8.25;6.43;;;37.00;34.90;;;;;;5054861;28;20050;-87
2022/08/14 12:12:20;;;;;;;9.18;6.80;;;37.10;35.40;;;;;;5071685;28;20051;-85
2022/08/14 12:14:58;;;;;;;6.97;6.28;;;36.90;35.70;;;;;;5071324;28;20475;-87
2022/08/14 12:17:31;;;;;;;6.80;6.20;;;36.80;35.10;;;;;;5071361;28;20559;-86
2022/08/14 12:20:05;;;;;;;7.18;6.47;;;36.80;35.20;;;;;;5054559;28;20040;-86
2022/08/14 12:22:39;;;;;;;8.00;6.70;;;36.80;35.00;;;;;;5071723;28;20052;-86
2022/08/14 12:25:13;;;;;;;7.60;6.90;;;37.00;34.50;;;;;;5071217;28;20676;-87
2022/08/14 12:27:42;;;;;;;9.30;7.30;;;36.80;34.60;;;;;;5054516;28;20089;-87
2022/08/14 12:30:13;;;;;;;11.20;7.05;;;36.50;35.30;;;;;;5071467;28;20048;-87
2022/08/14 12:32:45;;;;;;;14.65;7.93;;;36.20;35.40;;;;;;5054520;28;20040;-87
2022/08/14 12:35:12;;;;;;;7.55;6.95;;;36.30;35.80;;;;;;5071123;28;20055;-86
2022/08/14 12:37:38;;;;;;;7.82;7.13;;;36.50;35.60;;;;;;5054392;28;20060;-88
2022/08/14 12:40:12;;;;;;;7.50;6.82;;;36.40;36.10;;;;;;5070817;28;20560;-88
2022/08/14 12:42:38;;;;;;;8.27;7.20;;;36.20;37.10;;;;;;5071255;28;20048;-87
2022/08/14 12:45:06;;;;;;;8.00;7.20;;;36.50;36.00;;;;;;5054149;28;20036;-87
2022/08/14 12:47:32;;;;;;;9.30;6.75;;;36.60;35.70;;;;;;5071017;28;20131;-86
2022/08/14 12:49:57;;;;;;;7.72;6.95;;;36.80;35.80;;;;;;5071062;28;20474;-88
2022/08/14 12:52:32;;;;;;;7.47;6.78;;;37.00;35.00;;;;;;5054279;28;20072;-87
2022/08/14 12:54:59;;;;;;;7.70;6.82;;;37.00;34.90;;;;;;5054529;28;20531;-87